sensor_id;sensor_type;location;lat;lon;timestamp;P1;durP1;ratioP1;P2;durP2;ratioP2
75135;SDS011;63707;52.212;9.540;2023-09-07T00:02:08;9.02;;;3.58;;
75135;SDS011;63707;52.212;9.540;2023-09-07T00:04:33;8.48;;;4.13;;
75135;SDS011;63707;52.212;9.540;2023-09-07T00:07:00;7.45;;;4.47;;
75135;SDS011;63707;52.212;9.540;2023-09-07T00:09:26;7.43;;;4.20;;
75135;SDS011;63707;52.212;9.540;2023-09-07T00:11:52;8.07;;;4.22;;
75135;SDS011;63707;52.212;9.540;2023-09-07T00:14:17;7.47;;;3.95;;
75135;SDS011;63707;52.212;9.540;2023-09-07T00:16:43;6.40;;;4.40;;
75135;SDS011;63707;52.212;9.540;2023-09-07T00:19:08;6.95;;;4.40;;
75135;SDS011;63707;52.212;9.540;2023-09-07T00:21:34;6.50;;;4.30;;
75135;SDS011;63707;52.212;9.540;2023-09-07T00:24:01;6.18;;;4.45;;
75135;SDS011;63707;52.212;9.540;2023-09-07T00:26:30;7.15;;;4.38;;
75135;SDS011;63707;52.212;9.540;2023-09-07T00:28:56;9.25;;;5.18;;
75135;SDS011;63707;52.212;9.540;2023-09-07T00:31:21;6.95;;;4.28;;
75135;SDS011;63707;52.212;9.540;2023-09-07T00:33:47;7.70;;;4.20;;
75135;SDS011;63707;52.212;9.540;2023-09-07T00:36:12;6.78;;;4.60;;
75135;SDS011;63707;52.212;9.540;2023-09-07T00:38:37;7.85;;;4.60;;
75135;SDS011;63707;52.212;9.540;2023-09-07T00:41:04;10.75;;;5.03;;
75135;SDS011;63707;52.212;9.540;2023-09-07T00:43:30;7.15;;;4.47;;
75135;SDS011;63707;52.212;9.540;2023-09-07T00:45:55;5.90;;;4.13;;
75135;SDS011;63707;52.212;9.540;2023-09-07T00:48:21;8.02;;;4.60;;
75135;SDS011;63707;52.212;9.540;2023-09-07T00:50:47;6.93;;;4.65;;
75135;SDS011;63707;52.212;9.540;2023-09-07T00:53:13;7.88;;;4.40;;
75135;SDS011;63707;52.212;9.540;2023-09-07T00:55:39;8.75;;;4.82;;
75135;SDS011;63707;52.212;9.540;2023-09-07T01:01:09;6.10;;;4.47;;
75135;SDS011;63707;52.212;9.540;2023-09-07T01:03:35;8.30;;;5.30;;
75135;SDS011;63707;52.212;9.540;2023-09-07T01:06:01;8.18;;;4.85;;
75135;SDS011;63707;52.212;9.540;2023-09-07T01:08:31;8.18;;;5.53;;
75135;SDS011;63707;52.212;9.540;2023-09-07T01:11:00;8.27;;;4.80;;
75135;SDS011;63707;52.212;9.540;2023-09-07T01:13:26;9.65;;;5.07;;
75135;SDS011;63707;52.212;9.540;2023-09-07T01:15:51;9.48;;;5.03;;
75135;SDS011;63707;52.212;9.540;2023-09-07T01:18:18;6.82;;;4.85;;
75135;SDS011;63707;52.212;9.540;2023-09-07T01:20:45;5.72;;;4.40;;
75135;SDS011;63707;52.212;9.540;2023-09-07T01:23:13;8.90;;;4.88;;
75135;SDS011;63707;52.212;9.540;2023-09-07T01:25:39;7.43;;;4.35;;
75135;SDS011;63707;52.212;9.540;2023-09-07T01:28:05;9.32;;;5.20;;
75135;SDS011;63707;52.212;9.540;2023-09-07T01:30:31;7.55;;;4.82;;
75135;SDS011;63707;52.212;9.540;2023-09-07T01:33:00;7.32;;;4.93;;
75135;SDS011;63707;52.212;9.540;2023-09-07T01:35:27;8.75;;;4.80;;
75135;SDS011;63707;52.212;9.540;2023-09-07T01:37:53;6.15;;;5.07;;
75135;SDS011;63707;52.212;9.540;2023-09-07T01:40:19;9.20;;;4.75;;
75135;SDS011;63707;52.212;9.540;2023-09-07T01:42:45;11.07;;;5.10;;
75135;SDS011;63707;52.212;9.540;2023-09-07T01:45:10;6.43;;;4.53;;
75135;SDS011;63707;52.212;9.540;2023-09-07T01:47:36;9.05;;;5.07;;
75135;SDS011;63707;52.212;9.540;2023-09-07T01:50:01;8.85;;;5.60;;
75135;SDS011;63707;52.212;9.540;2023-09-07T01:52:27;9.98;;;5.30;;
75135;SDS011;63707;52.212;9.540;2023-09-07T01:54:53;7.28;;;5.03;;
75135;SDS011;63707;52.212;9.540;2023-09-07T01:57:21;9.48;;;5.45;;
75135;SDS011;63707;52.212;9.540;2023-09-07T01:59:47;8.23;;;5.28;;
75135;SDS011;63707;52.212;9.540;2023-09-07T02:02:13;8.68;;;5.50;;
75135;SDS011;63707;52.212;9.540;2023-09-07T02:04:38;9.95;;;5.68;;
75135;SDS011;63707;52.212;9.540;2023-09-07T02:07:04;10.05;;;5.28;;
75135;SDS011;63707;52.212;9.540;2023-09-07T02:09:30;7.80;;;5.22;;
75135;SDS011;63707;52.212;9.540;2023-09-07T02:11:56;6.53;;;5.10;;
75135;SDS011;63707;52.212;9.540;2023-09-07T02:14:23;8.57;;;5.40;;
75135;SDS011;63707;52.212;9.540;2023-09-07T02:16:48;8.85;;;5.53;;
75135;SDS011;63707;52.212;9.540;2023-09-07T02:19:14;7.22;;;5.50;;
75135;SDS011;63707;52.212;9.540;2023-09-07T02:21:39;8.52;;;5.43;;
75135;SDS011;63707;52.212;9.540;2023-09-07T02:24:05;7.63;;;5.28;;
75135;SDS011;63707;52.212;9.540;2023-09-07T02:26:31;8.10;;;5.72;;
75135;SDS011;63707;52.212;9.540;2023-09-07T02:28:56;8.95;;;6.38;;
75135;SDS011;63707;52.212;9.540;2023-09-07T02:31:23;10.25;;;5.95;;
75135;SDS011;63707;52.212;9.540;2023-09-07T02:33:48;12.68;;;6.25;;
75135;SDS011;63707;52.212;9.540;2023-09-07T02:36:14;8.68;;;5.97;;
75135;SDS011;63707;52.212;9.540;2023-09-07T02:38:39;8.43;;;6.28;;
75135;SDS011;63707;52.212;9.540;2023-09-07T02:41:05;8.43;;;5.88;;
75135;SDS011;63707;52.212;9.540;2023-09-07T02:43:31;8.57;;;5.70;;
75135;SDS011;63707;52.212;9.540;2023-09-07T02:45:56;7.95;;;5.57;;
75135;SDS011;63707;52.212;9.540;2023-09-07T02:48:23;9.48;;;5.57;;
75135;SDS011;63707;52.212;9.540;2023-09-07T02:50:48;9.45;;;5.97;;
75135;SDS011;63707;52.212;9.540;2023-09-07T02:53:15;8.93;;;6.32;;
75135;SDS011;63707;52.212;9.540;2023-09-07T02:55:41;8.82;;;6.22;;
75135;SDS011;63707;52.212;9.540;2023-09-07T02:58:06;7.80;;;5.78;;
75135;SDS011;63707;52.212;9.540;2023-09-07T03:00:32;7.88;;;6.05;;
75135;SDS011;63707;52.212;9.540;2023-09-07T03:02:57;11.82;;;6.43;;
75135;SDS011;63707;52.212;9.540;2023-09-07T03:05:26;9.05;;;6.30;;
75135;SDS011;63707;52.212;9.540;2023-09-07T03:07:51;9.20;;;5.68;;
75135;SDS011;63707;52.212;9.540;2023-09-07T03:10:17;10.93;;;6.05;;
75135;SDS011;63707;52.212;9.540;2023-09-07T03:12:43;7.95;;;6.18;;
75135;SDS011;63707;52.212;9.540;2023-09-07T03:15:09;7.68;;;5.90;;
75135;SDS011;63707;52.212;9.540;2023-09-07T03:17:34;10.32;;;6.30;;
75135;SDS011;63707;52.212;9.540;2023-09-07T03:20:00;10.35;;;6.25;;
75135;SDS011;63707;52.212;9.540;2023-09-07T03:22:27;10.50;;;6.18;;
75135;SDS011;63707;52.212;9.540;2023-09-07T03:24:54;8.55;;;6.25;;
75135;SDS011;63707;52.212;9.540;2023-09-07T03:27:19;9.25;;;6.93;;
75135;SDS011;63707;52.212;9.540;2023-09-07T03:29:46;11.35;;;7.00;;
75135;SDS011;63707;52.212;9.540;2023-09-07T03:32:11;9.07;;;5.93;;
75135;SDS011;63707;52.212;9.540;2023-09-07T03:34:37;10.68;;;6.38;;
75135;SDS011;63707;52.212;9.540;2023-09-07T03:37:03;9.50;;;6.47;;
75135;SDS011;63707;52.212;9.540;2023-09-07T03:39:32;11.60;;;6.90;;
75135;SDS011;63707;52.212;9.540;2023-09-07T03:41:58;11.70;;;6.95;;
75135;SDS011;63707;52.212;9.540;2023-09-07T03:44:23;10.68;;;7.32;;
75135;SDS011;63707;52.212;9.540;2023-09-07T03:46:49;13.95;;;6.63;;
75135;SDS011;63707;52.212;9.540;2023-09-07T03:49:14;13.30;;;7.60;;
75135;SDS011;63707;52.212;9.540;2023-09-07T03:51:39;11.38;;;7.10;;
75135;SDS011;63707;52.212;9.540;2023-09-07T03:54:05;10.07;;;7.05;;
75135;SDS011;63707;52.212;9.540;2023-09-07T03:56:32;11.95;;;7.38;;
75135;SDS011;63707;52.212;9.540;2023-09-07T03:58:57;10.90;;;6.97;;
75135;SDS011;63707;52.212;9.540;2023-09-07T04:01:23;10.10;;;6.97;;
75135;SDS011;63707;52.212;9.540;2023-09-07T04:03:48;10.10;;;6.57;;
75135;SDS011;63707;52.212;9.540;2023-09-07T04:06:15;11.77;;;7.15;;
75135;SDS011;63707;52.212;9.540;2023-09-07T04:08:40;10.43;;;7.25;;
75135;SDS011;63707;52.212;9.540;2023-09-07T04:11:06;9.77;;;6.95;;
75135;SDS011;63707;52.212;9.540;2023-09-07T04:13:33;13.45;;;6.85;;
75135;SDS011;63707;52.212;9.540;2023-09-07T04:15:58;14.80;;;7.32;;
75135;SDS011;63707;52.212;9.540;2023-09-07T04:18:24;10.65;;;7.55;;
75135;SDS011;63707;52.212;9.540;2023-09-07T04:20:49;9.77;;;6.75;;
75135;SDS011;63707;52.212;9.540;2023-09-07T04:23:15;11.32;;;7.43;;
75135;SDS011;63707;52.212;9.540;2023-09-07T04:25:40;10.63;;;7.13;;
75135;SDS011;63707;52.212;9.540;2023-09-07T04:28:06;11.27;;;7.35;;
75135;SDS011;63707;52.212;9.540;2023-09-07T04:30:36;13.15;;;7.47;;
75135;SDS011;63707;52.212;9.540;2023-09-07T04:33:02;11.75;;;7.85;;
75135;SDS011;63707;52.212;9.540;2023-09-07T04:35:28;15.27;;;7.85;;
75135;SDS011;63707;52.212;9.540;2023-09-07T04:37:55;10.75;;;6.93;;
75135;SDS011;63707;52.212;9.540;2023-09-07T04:40:21;12.30;;;7.40;;
75135;SDS011;63707;52.212;9.540;2023-09-07T04:42:47;10.32;;;7.38;;
75135;SDS011;63707;52.212;9.540;2023-09-07T04:45:12;11.13;;;7.47;;
75135;SDS011;63707;52.212;9.540;2023-09-07T04:47:39;13.90;;;7.60;;
75135;SDS011;63707;52.212;9.540;2023-09-07T04:50:05;13.63;;;8.25;;
75135;SDS011;63707;52.212;9.540;2023-09-07T04:52:31;11.65;;;7.97;;
75135;SDS011;63707;52.212;9.540;2023-09-07T04:54:57;11.77;;;7.40;;
75135;SDS011;63707;52.212;9.540;2023-09-07T04:57:23;11.32;;;7.38;;
75135;SDS011;63707;52.212;9.540;2023-09-07T04:59:48;12.05;;;7.38;;
75135;SDS011;63707;52.212;9.540;2023-09-07T05:02:14;11.65;;;7.88;;
75135;SDS011;63707;52.212;9.540;2023-09-07T05:04:40;13.60;;;8.05;;
75135;SDS011;63707;52.212;9.540;2023-09-07T05:07:06;10.80;;;7.93;;
75135;SDS011;63707;52.212;9.540;2023-09-07T05:09:31;13.45;;;8.82;;
75135;SDS011;63707;52.212;9.540;2023-09-07T05:11:58;12.32;;;7.72;;
75135;SDS011;63707;52.212;9.540;2023-09-07T05:14:23;11.35;;;8.10;;
75135;SDS011;63707;52.212;9.540;2023-09-07T05:16:49;12.80;;;8.45;;
75135;SDS011;63707;52.212;9.540;2023-09-07T05:19:15;14.85;;;7.97;;
75135;SDS011;63707;52.212;9.540;2023-09-07T05:21:42;12.88;;;7.95;;
75135;SDS011;63707;52.212;9.540;2023-09-07T05:24:07;10.05;;;7.93;;
75135;SDS011;63707;52.212;9.540;2023-09-07T05:26:33;11.07;;;7.65;;
75135;SDS011;63707;52.212;9.540;2023-09-07T05:28:59;14.05;;;8.40;;
75135;SDS011;63707;52.212;9.540;2023-09-07T05:31:24;12.60;;;8.43;;
75135;SDS011;63707;52.212;9.540;2023-09-07T05:33:50;11.68;;;7.43;;
75135;SDS011;63707;52.212;9.540;2023-09-07T05:36:16;15.40;;;8.57;;
75135;SDS011;63707;52.212;9.540;2023-09-07T05:38:43;16.63;;;8.45;;
75135;SDS011;63707;52.212;9.540;2023-09-07T05:41:09;14.75;;;8.77;;
75135;SDS011;63707;52.212;9.540;2023-09-07T05:43:34;13.13;;;7.95;;
75135;SDS011;63707;52.212;9.540;2023-09-07T05:46:00;12.75;;;7.63;;
75135;SDS011;63707;52.212;9.540;2023-09-07T05:48:25;10.75;;;7.03;;
75135;SDS011;63707;52.212;9.540;2023-09-07T05:50:51;10.38;;;6.97;;
75135;SDS011;63707;52.212;9.540;2023-09-07T05:53:18;10.60;;;6.90;;
75135;SDS011;63707;52.212;9.540;2023-09-07T05:55:45;10.35;;;7.20;;
75135;SDS011;63707;52.212;9.540;2023-09-07T05:58:10;9.85;;;6.43;;
75135;SDS011;63707;52.212;9.540;2023-09-07T06:00:36;9.85;;;6.40;;
75135;SDS011;63707;52.212;9.540;2023-09-07T06:03:02;8.80;;;6.53;;
75135;SDS011;63707;52.212;9.540;2023-09-07T06:05:28;10.32;;;6.55;;
75135;SDS011;63707;52.212;9.540;2023-09-07T06:07:53;12.88;;;6.97;;
75135;SDS011;63707;52.212;9.540;2023-09-07T06:10:19;12.45;;;7.03;;
75135;SDS011;63707;52.212;9.540;2023-09-07T06:12:46;10.77;;;6.88;;
75135;SDS011;63707;52.212;9.540;2023-09-07T06:15:11;10.50;;;7.18;;
75135;SDS011;63707;52.212;9.540;2023-09-07T06:17:37;12.93;;;6.90;;
75135;SDS011;63707;52.212;9.540;2023-09-07T06:20:03;10.93;;;6.45;;
75135;SDS011;63707;52.212;9.540;2023-09-07T06:22:30;15.95;;;7.03;;
75135;SDS011;63707;52.212;9.540;2023-09-07T06:24:55;13.10;;;7.15;;
75135;SDS011;63707;52.212;9.540;2023-09-07T06:27:21;12.52;;;6.60;;
75135;SDS011;63707;52.212;9.540;2023-09-07T06:29:48;12.10;;;6.80;;
75135;SDS011;63707;52.212;9.540;2023-09-07T06:32:14;15.23;;;7.90;;
75135;SDS011;63707;52.212;9.540;2023-09-07T06:34:39;16.60;;;7.53;;
75135;SDS011;63707;52.212;9.540;2023-09-07T06:37:05;14.88;;;6.68;;
75135;SDS011;63707;52.212;9.540;2023-09-07T06:39:30;15.18;;;7.78;;
75135;SDS011;63707;52.212;9.540;2023-09-07T06:41:56;23.30;;;7.55;;
75135;SDS011;63707;52.212;9.540;2023-09-07T06:44:21;14.25;;;7.47;;
75135;SDS011;63707;52.212;9.540;2023-09-07T06:46:48;11.07;;;6.88;;
75135;SDS011;63707;52.212;9.540;2023-09-07T06:49:14;12.70;;;6.32;;
75135;SDS011;63707;52.212;9.540;2023-09-07T06:51:40;14.00;;;6.22;;
75135;SDS011;63707;52.212;9.540;2023-09-07T06:54:05;12.50;;;6.38;;
75135;SDS011;63707;52.212;9.540;2023-09-07T06:56:31;14.57;;;5.13;;
75135;SDS011;63707;52.212;9.540;2023-09-07T06:58:58;14.57;;;5.78;;
75135;SDS011;63707;52.212;9.540;2023-09-07T07:01:23;9.13;;;5.78;;
75135;SDS011;63707;52.212;9.540;2023-09-07T07:03:50;11.68;;;5.50;;
75135;SDS011;63707;52.212;9.540;2023-09-07T07:06:16;8.98;;;5.15;;
75135;SDS011;63707;52.212;9.540;2023-09-07T07:08:41;11.10;;;5.13;;
75135;SDS011;63707;52.212;9.540;2023-09-07T07:11:07;9.82;;;4.72;;
75135;SDS011;63707;52.212;9.540;2023-09-07T07:13:33;7.20;;;4.57;;
75135;SDS011;63707;52.212;9.540;2023-09-07T07:15:58;8.50;;;5.03;;
75135;SDS011;63707;52.212;9.540;2023-09-07T07:18:24;9.32;;;4.50;;
75135;SDS011;63707;52.212;9.540;2023-09-07T07:20:51;9.73;;;5.40;;
75135;SDS011;63707;52.212;9.540;2023-09-07T07:23:16;8.02;;;5.25;;
75135;SDS011;63707;52.212;9.540;2023-09-07T07:25:41;6.45;;;4.43;;
75135;SDS011;63707;52.212;9.540;2023-09-07T07:28:07;9.73;;;5.10;;
75135;SDS011;63707;52.212;9.540;2023-09-07T07:30:33;7.82;;;4.80;;
75135;SDS011;63707;52.212;9.540;2023-09-07T07:32:59;6.25;;;4.43;;
75135;SDS011;63707;52.212;9.540;2023-09-07T07:35:25;9.45;;;4.60;;
75135;SDS011;63707;52.212;9.540;2023-09-07T07:37:52;7.15;;;4.30;;
75135;SDS011;63707;52.212;9.540;2023-09-07T07:40:17;6.13;;;4.53;;
75135;SDS011;63707;52.212;9.540;2023-09-07T07:42:43;7.70;;;4.68;;
75135;SDS011;63707;52.212;9.540;2023-09-07T07:45:09;6.88;;;4.68;;
75135;SDS011;63707;52.212;9.540;2023-09-07T07:47:35;11.50;;;5.38;;
75135;SDS011;63707;52.212;9.540;2023-09-07T07:50:00;9.27;;;4.63;;
75135;SDS011;63707;52.212;9.540;2023-09-07T07:52:25;7.93;;;4.80;;
75135;SDS011;63707;52.212;9.540;2023-09-07T07:54:53;7.45;;;4.38;;
75135;SDS011;63707;52.212;9.540;2023-09-07T07:57:18;9.25;;;4.40;;
75135;SDS011;63707;52.212;9.540;2023-09-07T07:59:44;7.82;;;4.82;;
75135;SDS011;63707;52.212;9.540;2023-09-07T08:02:09;6.93;;;4.68;;
75135;SDS011;63707;52.212;9.540;2023-09-07T08:04:35;9.10;;;4.93;;
75135;SDS011;63707;52.212;9.540;2023-09-07T08:07:00;8.48;;;4.80;;
75135;SDS011;63707;52.212;9.540;2023-09-07T08:09:28;8.48;;;4.50;;
75135;SDS011;63707;52.212;9.540;2023-09-07T08:11:56;5.60;;;4.10;;
75135;SDS011;63707;52.212;9.540;2023-09-07T08:14:22;7.45;;;4.43;;
75135;SDS011;63707;52.212;9.540;2023-09-07T08:16:48;9.82;;;5.07;;
75135;SDS011;63707;52.212;9.540;2023-09-07T08:19:13;6.07;;;4.43;;
75135;SDS011;63707;52.212;9.540;2023-09-07T08:21:39;6.45;;;4.20;;
75135;SDS011;63707;52.212;9.540;2023-09-07T08:24:07;8.65;;;5.38;;
75135;SDS011;63707;52.212;9.540;2023-09-07T08:26:32;7.18;;;4.18;;
75135;SDS011;63707;52.212;9.540;2023-09-07T08:28:59;6.35;;;4.72;;
75135;SDS011;63707;52.212;9.540;2023-09-07T08:31:30;5.90;;;4.07;;
75135;SDS011;63707;52.212;9.540;2023-09-07T08:33:55;5.55;;;4.32;;
75135;SDS011;63707;52.212;9.540;2023-09-07T08:36:21;8.93;;;5.03;;
75135;SDS011;63707;52.212;9.540;2023-09-07T08:38:47;7.18;;;4.28;;
75135;SDS011;63707;52.212;9.540;2023-09-07T08:41:13;8.20;;;4.40;;
75135;SDS011;63707;52.212;9.540;2023-09-07T08:43:39;5.97;;;4.60;;
75135;SDS011;63707;52.212;9.540;2023-09-07T08:46:13;7.53;;;4.40;;
75135;SDS011;63707;52.212;9.540;2023-09-07T08:48:40;5.55;;;4.40;;
75135;SDS011;63707;52.212;9.540;2023-09-07T08:51:07;5.80;;;4.68;;
75135;SDS011;63707;52.212;9.540;2023-09-07T08:53:36;6.88;;;4.90;;
75135;SDS011;63707;52.212;9.540;2023-09-07T08:56:02;6.93;;;4.78;;
75135;SDS011;63707;52.212;9.540;2023-09-07T08:58:29;7.55;;;4.78;;
75135;SDS011;63707;52.212;9.540;2023-09-07T09:00:54;6.55;;;4.85;;
75135;SDS011;63707;52.212;9.540;2023-09-07T09:03:24;10.98;;;5.40;;
75135;SDS011;63707;52.212;9.540;2023-09-07T09:05:50;7.22;;;5.05;;
75135;SDS011;63707;52.212;9.540;2023-09-07T09:08:16;9.20;;;5.32;;
75135;SDS011;63707;52.212;9.540;2023-09-07T09:10:45;7.32;;;5.00;;
75135;SDS011;63707;52.212;9.540;2023-09-07T09:13:11;8.20;;;5.72;;
75135;SDS011;63707;52.212;9.540;2023-09-07T09:15:36;10.07;;;5.88;;
75135;SDS011;63707;52.212;9.540;2023-09-07T09:18:08;9.65;;;5.70;;
75135;SDS011;63707;52.212;9.540;2023-09-07T09:20:37;6.85;;;4.90;;
75135;SDS011;63707;52.212;9.540;2023-09-07T09:23:03;8.80;;;5.30;;
75135;SDS011;63707;52.212;9.540;2023-09-07T09:25:31;10.40;;;5.82;;
75135;SDS011;63707;52.212;9.540;2023-09-07T09:27:56;9.52;;;5.80;;
75135;SDS011;63707;52.212;9.540;2023-09-07T09:30:22;7.82;;;5.88;;
75135;SDS011;63707;52.212;9.540;2023-09-07T09:32:47;7.50;;;5.78;;
75135;SDS011;63707;52.212;9.540;2023-09-07T09:35:15;8.65;;;5.75;;
75135;SDS011;63707;52.212;9.540;2023-09-07T09:37:46;9.05;;;5.93;;
75135;SDS011;63707;52.212;9.540;2023-09-07T09:40:13;10.30;;;7.32;;
75135;SDS011;63707;52.212;9.540;2023-09-07T09:42:40;11.02;;;6.63;;
75135;SDS011;63707;52.212;9.540;2023-09-07T09:45:07;10.27;;;6.35;;
75135;SDS011;63707;52.212;9.540;2023-09-07T09:47:33;10.77;;;6.43;;
75135;SDS011;63707;52.212;9.540;2023-09-07T09:50:04;10.13;;;6.18;;
75135;SDS011;63707;52.212;9.540;2023-09-07T09:52:32;9.85;;;5.93;;
75135;SDS011;63707;52.212;9.540;2023-09-07T09:55:00;7.57;;;5.75;;
75135;SDS011;63707;52.212;9.540;2023-09-07T09:57:26;8.48;;;5.28;;
75135;SDS011;63707;52.212;9.540;2023-09-07T09:59:54;7.60;;;5.93;;
75135;SDS011;63707;52.212;9.540;2023-09-07T10:02:19;8.43;;;5.70;;
75135;SDS011;63707;52.212;9.540;2023-09-07T10:04:46;7.30;;;5.45;;
75135;SDS011;63707;52.212;9.540;2023-09-07T10:07:11;7.00;;;5.35;;
75135;SDS011;63707;52.212;9.540;2023-09-07T10:09:37;9.82;;;5.20;;
75135;SDS011;63707;52.212;9.540;2023-09-07T10:12:10;12.63;;;5.75;;
75135;SDS011;63707;52.212;9.540;2023-09-07T10:14:39;10.05;;;5.40;;
75135;SDS011;63707;52.212;9.540;2023-09-07T10:17:06;6.18;;;4.90;;
75135;SDS011;63707;52.212;9.540;2023-09-07T10:19:31;7.82;;;5.15;;
75135;SDS011;63707;52.212;9.540;2023-09-07T10:21:57;11.75;;;5.07;;
75135;SDS011;63707;52.212;9.540;2023-09-07T10:24:26;7.00;;;5.43;;
75135;SDS011;63707;52.212;9.540;2023-09-07T10:26:56;8.50;;;5.43;;
75135;SDS011;63707;52.212;9.540;2023-09-07T10:29:26;7.82;;;5.18;;
75135;SDS011;63707;52.212;9.540;2023-09-07T10:31:52;8.65;;;5.00;;
75135;SDS011;63707;52.212;9.540;2023-09-07T10:34:18;7.18;;;5.60;;
75135;SDS011;63707;52.212;9.540;2023-09-07T10:36:46;9.32;;;4.95;;
75135;SDS011;63707;52.212;9.540;2023-09-07T10:39:12;8.38;;;4.68;;
75135;SDS011;63707;52.212;9.540;2023-09-07T10:41:41;8.18;;;4.95;;
75135;SDS011;63707;52.212;9.540;2023-09-07T10:44:09;8.80;;;4.90;;
75135;SDS011;63707;52.212;9.540;2023-09-07T10:46:40;9.18;;;5.15;;
75135;SDS011;63707;52.212;9.540;2023-09-07T10:49:06;9.13;;;5.55;;
75135;SDS011;63707;52.212;9.540;2023-09-07T10:51:39;9.77;;;4.93;;
75135;SDS011;63707;52.212;9.540;2023-09-07T10:54:12;8.77;;;5.53;;
75135;SDS011;63707;52.212;9.540;2023-09-07T10:56:39;9.32;;;5.50;;
75135;SDS011;63707;52.212;9.540;2023-09-07T10:59:04;6.10;;;4.93;;
75135;SDS011;63707;52.212;9.540;2023-09-07T11:01:30;6.35;;;4.60;;
75135;SDS011;63707;52.212;9.540;2023-09-07T11:03:57;9.07;;;4.63;;
75135;SDS011;63707;52.212;9.540;2023-09-07T11:06:23;7.15;;;4.63;;
75135;SDS011;63707;52.212;9.540;2023-09-07T11:08:48;6.68;;;4.68;;
75135;SDS011;63707;52.212;9.540;2023-09-07T11:11:14;6.93;;;4.75;;
75135;SDS011;63707;52.212;9.540;2023-09-07T11:13:40;6.30;;;4.45;;
75135;SDS011;63707;52.212;9.540;2023-09-07T11:16:07;8.85;;;5.00;;
75135;SDS011;63707;52.212;9.540;2023-09-07T11:18:34;8.40;;;4.85;;
75135;SDS011;63707;52.212;9.540;2023-09-07T11:21:04;6.90;;;4.50;;
75135;SDS011;63707;52.212;9.540;2023-09-07T11:23:30;9.45;;;5.03;;
75135;SDS011;63707;52.212;9.540;2023-09-07T11:26:03;10.32;;;4.68;;
75135;SDS011;63707;52.212;9.540;2023-09-07T11:28:29;6.82;;;4.82;;
75135;SDS011;63707;52.212;9.540;2023-09-07T11:30:55;9.75;;;5.68;;
75135;SDS011;63707;52.212;9.540;2023-09-07T11:33:20;10.18;;;5.50;;
75135;SDS011;63707;52.212;9.540;2023-09-07T11:35:47;9.30;;;5.10;;
75135;SDS011;63707;52.212;9.540;2023-09-07T11:38:15;8.75;;;5.28;;
75135;SDS011;63707;52.212;9.540;2023-09-07T11:40:42;10.98;;;5.18;;
75135;SDS011;63707;52.212;9.540;2023-09-07T11:43:11;10.73;;;5.45;;
75135;SDS011;63707;52.212;9.540;2023-09-07T11:45:37;9.82;;;4.90;;
75135;SDS011;63707;52.212;9.540;2023-09-07T11:48:03;7.55;;;5.22;;
75135;SDS011;63707;52.212;9.540;2023-09-07T11:50:29;8.35;;;4.80;;
75135;SDS011;63707;52.212;9.540;2023-09-07T11:52:55;10.25;;;5.35;;
75135;SDS011;63707;52.212;9.540;2023-09-07T11:55:22;7.78;;;4.88;;
75135;SDS011;63707;52.212;9.540;2023-09-07T11:57:48;8.93;;;4.75;;
75135;SDS011;63707;52.212;9.540;2023-09-07T12:00:14;6.15;;;4.47;;
75135;SDS011;63707;52.212;9.540;2023-09-07T12:02:40;9.70;;;5.05;;
75135;SDS011;63707;52.212;9.540;2023-09-07T12:05:06;9.88;;;4.90;;
75135;SDS011;63707;52.212;9.540;2023-09-07T12:07:39;10.98;;;4.78;;
75135;SDS011;63707;52.212;9.540;2023-09-07T12:10:05;7.38;;;4.80;;
75135;SDS011;63707;52.212;9.540;2023-09-07T12:12:36;7.07;;;4.95;;
75135;SDS011;63707;52.212;9.540;2023-09-07T12:15:02;6.38;;;4.40;;
75135;SDS011;63707;52.212;9.540;2023-09-07T12:17:29;8.25;;;4.63;;
75135;SDS011;63707;52.212;9.540;2023-09-07T12:19:54;10.38;;;4.60;;
75135;SDS011;63707;52.212;9.540;2023-09-07T12:22:20;6.15;;;4.40;;
75135;SDS011;63707;52.212;9.540;2023-09-07T12:24:45;7.22;;;4.50;;
75135;SDS011;63707;52.212;9.540;2023-09-07T12:27:11;6.95;;;4.40;;
75135;SDS011;63707;52.212;9.540;2023-09-07T12:29:38;7.25;;;4.20;;
75135;SDS011;63707;52.212;9.540;2023-09-07T12:32:03;8.35;;;4.90;;
75135;SDS011;63707;52.212;9.540;2023-09-07T12:34:29;5.05;;;4.43;;
75135;SDS011;63707;52.212;9.540;2023-09-07T12:36:55;4.63;;;4.18;;
75135;SDS011;63707;52.212;9.540;2023-09-07T12:39:20;7.03;;;4.70;;
75135;SDS011;63707;52.212;9.540;2023-09-07T12:41:46;7.13;;;4.30;;
75135;SDS011;63707;52.212;9.540;2023-09-07T12:44:11;7.28;;;3.97;;
75135;SDS011;63707;52.212;9.540;2023-09-07T12:46:39;5.38;;;3.90;;
75135;SDS011;63707;52.212;9.540;2023-09-07T12:49:04;7.05;;;4.05;;
75135;SDS011;63707;52.212;9.540;2023-09-07T12:51:31;5.40;;;4.18;;
75135;SDS011;63707;52.212;9.540;2023-09-07T12:53:56;6.25;;;4.70;;
75135;SDS011;63707;52.212;9.540;2023-09-07T12:56:22;7.60;;;3.83;;
75135;SDS011;63707;52.212;9.540;2023-09-07T12:58:47;5.93;;;4.00;;
75135;SDS011;63707;52.212;9.540;2023-09-07T13:01:14;6.18;;;4.10;;
75135;SDS011;63707;52.212;9.540;2023-09-07T13:03:42;6.95;;;3.80;;
75135;SDS011;63707;52.212;9.540;2023-09-07T13:06:08;4.88;;;3.88;;
75135;SDS011;63707;52.212;9.540;2023-09-07T13:08:34;8.85;;;4.30;;
75135;SDS011;63707;52.212;9.540;2023-09-07T13:10:59;4.95;;;3.75;;
75135;SDS011;63707;52.212;9.540;2023-09-07T13:13:25;6.13;;;4.28;;
75135;SDS011;63707;52.212;9.540;2023-09-07T13:15:54;7.53;;;4.60;;
75135;SDS011;63707;52.212;9.540;2023-09-07T13:18:20;5.45;;;4.32;;
75135;SDS011;63707;52.212;9.540;2023-09-07T13:20:46;9.07;;;4.15;;
75135;SDS011;63707;52.212;9.540;2023-09-07T13:23:13;10.23;;;4.65;;
75135;SDS011;63707;52.212;9.540;2023-09-07T13:25:39;4.90;;;3.90;;
75135;SDS011;63707;52.212;9.540;2023-09-07T13:28:04;6.80;;;4.10;;
75135;SDS011;63707;52.212;9.540;2023-09-07T13:30:30;8.82;;;3.83;;
75135;SDS011;63707;52.212;9.540;2023-09-07T13:32:55;5.80;;;4.10;;
75135;SDS011;63707;52.212;9.540;2023-09-07T13:35:21;4.97;;;4.10;;
75135;SDS011;63707;52.212;9.540;2023-09-07T13:37:48;6.43;;;4.32;;
75135;SDS011;63707;52.212;9.540;2023-09-07T13:40:13;8.27;;;4.30;;
75135;SDS011;63707;52.212;9.540;2023-09-07T13:42:40;6.40;;;4.57;;
75135;SDS011;63707;52.212;9.540;2023-09-07T13:45:06;6.47;;;4.65;;
75135;SDS011;63707;52.212;9.540;2023-09-07T13:47:32;7.65;;;4.57;;
75135;SDS011;63707;52.212;9.540;2023-09-07T13:49:57;5.15;;;4.18;;
75135;SDS011;63707;52.212;9.540;2023-09-07T13:52:23;7.18;;;4.50;;
75135;SDS011;63707;52.212;9.540;2023-09-07T13:54:50;6.00;;;4.00;;
75135;SDS011;63707;52.212;9.540;2023-09-07T13:57:15;6.72;;;4.30;;
75135;SDS011;63707;52.212;9.540;2023-09-07T13:59:41;8.20;;;4.53;;
75135;SDS011;63707;52.212;9.540;2023-09-07T14:02:06;5.88;;;3.92;;
75135;SDS011;63707;52.212;9.540;2023-09-07T14:04:32;8.02;;;4.50;;
75135;SDS011;63707;52.212;9.540;2023-09-07T14:06:57;5.22;;;4.60;;
75135;SDS011;63707;52.212;9.540;2023-09-07T14:09:23;8.13;;;4.45;;
75135;SDS011;63707;52.212;9.540;2023-09-07T14:11:49;5.68;;;4.28;;
75135;SDS011;63707;52.212;9.540;2023-09-07T14:14:15;5.63;;;4.35;;
75135;SDS011;63707;52.212;9.540;2023-09-07T14:16:41;6.80;;;4.03;;
75135;SDS011;63707;52.212;9.540;2023-09-07T14:19:07;6.93;;;4.03;;
75135;SDS011;63707;52.212;9.540;2023-09-07T14:21:32;7.82;;;4.53;;
75135;SDS011;63707;52.212;9.540;2023-09-07T14:23:58;6.40;;;4.28;;
75135;SDS011;63707;52.212;9.540;2023-09-07T14:26:23;6.72;;;4.30;;
75135;SDS011;63707;52.212;9.540;2023-09-07T14:28:50;6.72;;;4.18;;
75135;SDS011;63707;52.212;9.540;2023-09-07T14:31:16;8.77;;;4.10;;
75135;SDS011;63707;52.212;9.540;2023-09-07T14:33:41;7.68;;;3.90;;
75135;SDS011;63707;52.212;9.540;2023-09-07T14:36:07;6.40;;;4.20;;
75135;SDS011;63707;52.212;9.540;2023-09-07T14:38:33;7.70;;;3.95;;
75135;SDS011;63707;52.212;9.540;2023-09-07T14:41:05;9.40;;;3.92;;